createdAt,value
2022-12-18T00:00:52.600Z,99779.00
2022-12-18T00:03:22.620Z,99776.00
2022-12-18T00:05:53.817Z,99773.00
2022-12-18T00:08:26.820Z,99780.00
2022-12-18T00:11:00.438Z,99782.00
2022-12-18T00:13:31.520Z,99779.00
2022-12-18T00:16:05.639Z,99782.00
2022-12-18T00:18:36.115Z,99780.00
2022-12-18T00:21:08.196Z,99785.00
2022-12-18T00:23:42.421Z,99775.00
2022-12-18T00:26:16.135Z,99788.00
2022-12-18T00:28:46.442Z,99788.00
2022-12-18T00:31:17.887Z,99804.00
2022-12-18T00:33:48.079Z,99823.00
2022-12-18T00:36:22.085Z,99817.00
2022-12-18T00:38:54.625Z,99826.00
2022-12-18T00:41:36.780Z,99834.00
2022-12-18T00:44:08.895Z,99838.00
2022-12-18T00:46:38.914Z,99843.00
2022-12-18T00:49:09.255Z,99838.00
2022-12-18T00:51:39.153Z,99831.00
2022-12-18T00:54:11.720Z,99837.00
2022-12-18T00:56:49.968Z,99839.00
2022-12-18T00:59:21.325Z,99842.00
2022-12-18T01:01:51.667Z,99845.00
2022-12-18T01:04:23.541Z,99844.00
2022-12-18T01:06:53.970Z,99855.00
2022-12-18T01:09:26.860Z,99846.00
2022-12-18T01:11:56.773Z,99845.00
2022-12-18T01:14:26.633Z,99848.00
2022-12-18T01:16:56.716Z,99836.00
2022-12-18T01:19:27.373Z,99853.00
2022-12-18T01:21:58.192Z,99861.00
2022-12-18T01:24:30.661Z,99861.00
2022-12-18T01:27:00.988Z,99861.00
2022-12-18T01:29:31.005Z,99869.00
2022-12-18T01:32:01.092Z,99856.00
2022-12-18T01:34:33.449Z,99862.00
2022-12-18T01:37:06.486Z,99860.00
2022-12-18T01:39:39.043Z,99861.00
2022-12-18T01:42:14.248Z,99863.00
2022-12-18T01:45:00.896Z,99870.00
2022-12-18T01:47:34.391Z,99868.00
2022-12-18T01:50:06.923Z,99867.00
2022-12-18T01:52:37.858Z,99871.00
2022-12-18T01:55:11.880Z,99871.00
2022-12-18T01:57:42.381Z,99872.00
2022-12-18T02:00:16.293Z,99867.00
2022-12-18T02:02:47.841Z,99862.00
2022-12-18T02:05:21.483Z,99880.00
2022-12-18T02:07:59.839Z,99883.00
2022-12-18T02:10:35.919Z,99877.00
2022-12-18T02:13:13.195Z,99879.00
2022-12-18T02:15:45.363Z,99887.00
2022-12-18T02:18:18.020Z,99895.00
2022-12-18T02:20:50.879Z,99910.00
2022-12-18T02:23:38.147Z,99906.00
2022-12-18T02:26:19.653Z,99901.00
2022-12-18T02:28:51.513Z,99917.00
2022-12-18T02:31:25.113Z,99925.00
2022-12-18T02:34:00.544Z,99921.00
2022-12-18T02:36:32.275Z,99910.00
2022-12-18T02:39:04.587Z,99905.00
2022-12-18T02:41:57.507Z,99905.00
2022-12-18T02:44:28.348Z,99909.00
2022-12-18T02:46:58.875Z,99907.00
2022-12-18T02:49:35.808Z,99901.00
2022-12-18T02:52:11.822Z,99902.00
2022-12-18T02:54:53.529Z,99902.00
2022-12-18T02:57:32.904Z,99907.00
2022-12-18T03:00:07.099Z,99907.00
2022-12-18T03:02:41.986Z,99923.00
2022-12-18T03:05:16.238Z,99928.00
2022-12-18T03:07:52.492Z,99946.00
2022-12-18T03:10:28.307Z,99953.00
2022-12-18T03:13:03.976Z,99956.00
2022-12-18T03:15:38.127Z,99939.00
2022-12-18T03:18:15.547Z,99944.00
2022-12-18T03:20:47.505Z,99949.00
2022-12-18T03:23:26.110Z,99953.00
2022-12-18T03:26:00.847Z,99950.00
2022-12-18T03:28:39.807Z,99939.00
2022-12-18T03:31:12.187Z,99954.00
2022-12-18T03:33:43.703Z,99954.00
2022-12-18T03:36:13.796Z,99952.00
2022-12-18T03:38:43.760Z,99960.00
2022-12-18T03:41:20.844Z,99953.00
2022-12-18T03:44:17.927Z,99961.00
2022-12-18T03:46:54.018Z,99956.00
2022-12-18T03:49:29.384Z,99969.00
2022-12-18T03:52:07.577Z,99977.00
2022-12-18T03:54:38.181Z,99976.00
2022-12-18T03:57:18.040Z,99977.00
2022-12-18T03:59:53.660Z,99984.00
2022-12-18T04:02:30.041Z,99988.00
2022-12-18T04:05:05.956Z,99980.00
2022-12-18T04:07:37.826Z,99979.00
2022-12-18T04:10:11.239Z,99985.00
2022-12-18T04:12:42.016Z,99986.00
2022-12-18T04:15:17.381Z,99972.00
2022-12-18T04:17:51.747Z,99971.00
2022-12-18T04:20:22.242Z,99974.00
2022-12-18T04:22:52.239Z,99985.00
2022-12-18T04:25:23.444Z,99989.00
2022-12-18T04:28:02.629Z,99986.00
2022-12-18T04:30:35.151Z,99997.00
2022-12-18T04:33:05.343Z,100003.00
2022-12-18T04:35:35.586Z,99998.00
2022-12-18T04:38:05.484Z,100005.00
2022-12-18T04:40:38.944Z,100000.00
2022-12-18T04:43:15.212Z,100011.00
2022-12-18T04:45:47.869Z,100017.00
2022-12-18T04:48:17.807Z,100017.00
2022-12-18T04:50:47.926Z,100010.00
2022-12-18T04:53:17.714Z,100013.00
2022-12-18T04:55:47.519Z,100015.00
2022-12-18T04:58:17.468Z,100015.00
2022-12-18T05:00:49.943Z,100019.00
2022-12-18T05:03:19.886Z,100013.00
2022-12-18T05:05:53.502Z,100004.00
2022-12-18T05:08:23.418Z,99998.00
2022-12-18T05:10:53.300Z,100016.00
2022-12-18T05:13:23.179Z,100008.00
2022-12-18T05:15:58.356Z,100019.00
2022-12-18T05:18:28.941Z,100017.00
2022-12-18T05:20:59.016Z,100020.00
2022-12-18T05:23:29.806Z,100025.00
2022-12-18T05:26:01.302Z,100028.00
2022-12-18T05:28:32.798Z,100033.00
2022-12-18T05:31:06.905Z,100034.00
2022-12-18T05:33:38.416Z,100043.00
2022-12-18T05:36:11.192Z,100037.00
2022-12-18T05:38:42.172Z,100046.00
2022-12-18T05:41:12.911Z,100052.00
2022-12-18T05:43:44.405Z,100046.00
2022-12-18T05:46:19.724Z,100038.00
2022-12-18T05:48:51.324Z,100049.00
2022-12-18T05:51:23.780Z,100047.00
2022-12-18T05:53:53.738Z,100052.00
2022-12-18T05:56:24.888Z,100055.00
2022-12-18T05:58:56.200Z,100054.00
2022-12-18T06:01:30.462Z,100061.00
2022-12-18T06:04:00.994Z,100062.00
2022-12-18T06:06:31.645Z,100074.00
2022-12-18T06:09:02.536Z,100060.00
2022-12-18T06:11:32.616Z,100066.00
2022-12-18T06:14:02.505Z,100079.00
2022-12-18T06:16:35.299Z,100068.00
2022-12-18T06:19:07.157Z,100063.00
2022-12-18T06:21:37.402Z,100074.00
2022-12-18T06:24:07.893Z,100080.00
2022-12-18T06:26:37.804Z,100087.00
2022-12-18T06:29:07.680Z,100090.00
2022-12-18T06:31:40.240Z,100101.00
2022-12-18T06:34:10.190Z,100087.00
2022-12-18T06:36:40.054Z,100089.00
2022-12-18T06:39:09.874Z,100092.00
2022-12-18T06:41:39.760Z,100106.00
2022-12-18T06:44:09.876Z,100103.00
2022-12-18T06:46:43.624Z,100102.00
2022-12-18T06:49:13.582Z,100107.00
2022-12-18T06:51:43.693Z,100110.00
2022-12-18T06:54:13.579Z,100119.00
2022-12-18T06:56:43.464Z,100123.00
2022-12-18T06:59:13.422Z,100126.00
2022-12-18T07:01:46.007Z,100114.00
2022-12-18T07:04:16.076Z,100133.00
2022-12-18T07:06:45.910Z,100124.00
2022-12-18T07:09:15.800Z,100125.00
2022-12-18T07:11:45.726Z,100131.00
2022-12-18T07:14:15.600Z,100134.00
2022-12-18T07:16:48.093Z,100144.00
2022-12-18T07:19:18.186Z,100141.00
2022-12-18T07:21:48.050Z,100151.00
2022-12-18T07:24:18.054Z,100136.00
2022-12-18T07:26:49.901Z,100147.00
2022-12-18T07:29:19.991Z,100140.00
2022-12-18T07:31:52.558Z,100160.00
2022-12-18T07:34:22.624Z,100156.00
2022-12-18T07:36:52.465Z,100156.00
2022-12-18T07:39:22.430Z,100164.00
2022-12-18T07:42:12.219Z,100164.00
2022-12-18T07:44:43.628Z,100154.00
2022-12-18T07:47:16.052Z,100157.00
2022-12-18T07:49:46.005Z,100176.00
2022-12-18T07:52:17.167Z,100183.00
2022-12-18T07:54:50.317Z,100178.00
2022-12-18T07:57:41.894Z,100181.00
2022-12-18T08:00:11.633Z,100168.00
2022-12-18T08:02:47.126Z,100166.00
2022-12-18T08:05:18.915Z,100177.00
2022-12-18T08:07:48.818Z,100181.00
2022-12-18T08:10:19.083Z,100184.00
2022-12-18T08:12:48.959Z,100192.00
2022-12-18T08:15:18.971Z,100198.00
2022-12-18T08:17:51.407Z,100202.00
2022-12-18T08:20:22.111Z,100206.00
2022-12-18T08:22:51.992Z,100210.00
2022-12-18T08:25:21.783Z,100212.00
2022-12-18T08:27:51.754Z,100208.00
2022-12-18T08:30:22.143Z,100206.00
2022-12-18T08:32:58.132Z,100227.00
2022-12-18T08:35:31.648Z,100221.00
2022-12-18T08:38:05.814Z,100227.00
2022-12-18T08:40:35.692Z,100223.00
2022-12-18T08:43:17.993Z,100231.00
2022-12-18T08:45:47.892Z,100241.00
2022-12-18T08:48:22.339Z,100237.00
2022-12-18T08:50:58.433Z,100223.00
2022-12-18T08:53:36.668Z,100222.00
2022-12-18T08:56:06.905Z,100242.00
2022-12-18T08:58:36.799Z,100231.00
2022-12-18T09:01:07.479Z,100236.00
2022-12-18T09:03:41.153Z,100242.00
2022-12-18T09:06:11.506Z,100246.00
2022-12-18T09:08:41.755Z,100231.00
2022-12-18T09:11:17.082Z,100236.00
2022-12-18T09:13:47.012Z,100238.00
2022-12-18T09:16:16.878Z,100240.00
2022-12-18T09:18:49.445Z,100226.00
2022-12-18T09:21:21.639Z,100224.00
2022-12-18T09:23:53.465Z,100213.00
2022-12-18T09:26:23.456Z,100212.00
2022-12-18T09:28:53.508Z,100214.00
2022-12-18T09:31:25.176Z,100206.00
2022-12-18T09:33:58.959Z,100207.00
2022-12-18T09:36:28.852Z,100212.00
2022-12-18T09:39:00.157Z,100214.00
2022-12-18T09:41:43.648Z,100190.00
2022-12-18T09:44:24.943Z,100195.00
2022-12-18T09:46:59.294Z,100182.00
2022-12-18T09:49:34.627Z,100178.00
2022-12-18T09:52:07.684Z,100180.00
2022-12-18T09:54:47.635Z,100172.00
2022-12-18T09:57:18.876Z,100174.00
2022-12-18T09:59:54.480Z,100161.00
2022-12-18T10:02:26.324Z,100156.00
2022-12-18T10:05:11.663Z,100167.00
2022-12-18T10:07:51.314Z,100163.00
2022-12-18T10:10:27.525Z,100173.00
2022-12-18T10:13:04.875Z,100174.00
2022-12-18T10:15:40.492Z,100187.00
2022-12-18T10:18:22.262Z,100184.00
2022-12-18T10:20:57.228Z,100177.00
2022-12-18T10:23:30.883Z,100174.00
2022-12-18T10:26:06.239Z,100184.00
2022-12-18T10:28:40.148Z,100183.00
2022-12-18T10:31:10.707Z,100186.00
2022-12-18T10:33:40.638Z,100180.00
2022-12-18T10:36:13.588Z,100173.00
2022-12-18T10:38:44.271Z,100171.00
2022-12-18T10:41:29.640Z,100169.00
2022-12-18T10:44:16.360Z,100177.00
2022-12-18T10:46:46.398Z,100175.00
2022-12-18T10:49:30.408Z,100177.00
2022-12-18T10:52:19.172Z,100183.00
2022-12-18T10:54:53.929Z,100183.00
2022-12-18T10:57:38.703Z,100179.00
2022-12-18T11:00:30.233Z,100181.00
2022-12-18T11:03:01.161Z,100187.00
2022-12-18T11:05:33.128Z,100178.00
2022-12-18T11:08:05.955Z,100191.00
2022-12-18T11:10:37.656Z,100184.00
2022-12-18T11:13:15.910Z,100184.00
2022-12-18T11:15:45.968Z,100178.00
2022-12-18T11:18:22.939Z,100186.00
2022-12-18T11:20:59.073Z,100187.00
2022-12-18T11:23:31.882Z,100190.00
2022-12-18T11:26:03.438Z,100196.00
2022-12-18T11:28:40.030Z,100188.00
2022-12-18T11:31:28.680Z,100198.00
2022-12-18T11:36:57.531Z,100207.00
2022-12-18T11:39:37.973Z,100205.00
2022-12-18T11:42:16.948Z,100202.00
2022-12-18T11:44:51.200Z,100196.00
2022-12-18T11:47:32.220Z,100205.00
2022-12-18T11:50:05.016Z,100205.00
2022-12-18T11:52:40.640Z,100195.00
2022-12-18T11:55:16.916Z,100195.00
2022-12-18T11:57:53.641Z,100189.00
2022-12-18T12:00:24.459Z,100186.00
2022-12-18T12:03:16.076Z,100186.00
2022-12-18T12:05:55.210Z,100181.00
2022-12-18T12:08:31.082Z,100182.00
2022-12-18T12:11:09.494Z,100179.00
2022-12-18T12:13:48.220Z,100185.00
2022-12-18T12:16:21.744Z,100185.00
2022-12-18T12:19:05.187Z,100191.00
2022-12-18T12:21:40.501Z,100178.00
2022-12-18T12:24:30.686Z,100179.00
2022-12-18T12:27:09.847Z,100169.00
2022-12-18T12:29:50.246Z,100165.00
2022-12-18T12:32:27.632Z,100171.00
2022-12-18T12:35:09.803Z,100180.00
2022-12-18T12:37:46.444Z,100177.00
2022-12-18T12:40:49.070Z,100175.00
2022-12-18T12:43:24.440Z,100178.00
2022-12-18T12:45:58.057Z,100170.00
2022-12-18T12:48:37.605Z,100163.00
2022-12-18T12:51:13.475Z,100169.00
2022-12-18T12:53:44.022Z,100180.00
2022-12-18T12:56:16.234Z,100180.00
2022-12-18T12:58:56.089Z,100186.00
2022-12-18T13:01:36.315Z,100179.00
2022-12-18T13:04:13.928Z,100170.00
2022-12-18T13:06:50.745Z,100166.00
2022-12-18T13:09:20.621Z,100187.00
2022-12-18T13:12:04.512Z,100183.00
2022-12-18T13:14:39.811Z,100181.00
2022-12-18T13:17:32.648Z,100180.00
2022-12-18T13:20:15.432Z,100166.00
2022-12-18T13:22:49.034Z,100172.00
2022-12-18T13:25:34.758Z,100177.00
2022-12-18T13:28:09.437Z,100178.00
2022-12-18T13:31:00.970Z,100192.00
2022-12-18T13:36:42.099Z,100180.00
2022-12-18T13:39:34.333Z,100170.00
2022-12-18T13:42:58.952Z,100173.00
2022-12-18T13:45:48.216Z,100181.00
2022-12-18T13:48:23.046Z,100184.00
2022-12-18T13:51:00.281Z,100176.00
2022-12-18T13:53:33.941Z,100186.00
2022-12-18T13:56:03.824Z,100188.00
2022-12-18T13:58:34.124Z,100187.00
2022-12-18T14:01:05.772Z,100191.00
2022-12-18T14:03:38.786Z,100193.00
2022-12-18T14:06:11.270Z,100185.00
2022-12-18T14:08:43.804Z,100197.00
2022-12-18T14:11:22.987Z,100221.00
2022-12-18T14:13:53.696Z,100206.00
2022-12-18T14:16:23.944Z,100213.00
2022-12-18T14:19:06.549Z,100208.00
2022-12-18T14:21:49.691Z,100206.00
2022-12-18T14:24:21.591Z,100215.00
2022-12-18T14:26:52.568Z,100200.00
2022-12-18T14:29:26.120Z,100203.00
2022-12-18T14:32:14.954Z,100225.00
2022-12-18T14:34:50.563Z,100223.00
2022-12-18T14:37:22.008Z,100219.00
2022-12-18T14:40:03.258Z,100236.00
2022-12-18T14:42:37.161Z,100233.00
2022-12-18T14:45:41.415Z,100230.00
2022-12-18T14:48:22.885Z,100238.00
2022-12-18T14:51:04.132Z,100237.00
2022-12-18T14:53:42.572Z,100222.00
2022-12-18T14:56:21.850Z,100234.00
2022-12-18T14:58:53.134Z,100239.00
2022-12-18T15:01:25.418Z,100237.00
2022-12-18T15:03:56.257Z,100222.00
2022-12-18T15:06:34.244Z,100229.00
2022-12-18T15:09:06.384Z,100227.00
2022-12-18T15:11:41.625Z,100225.00
2022-12-18T15:14:36.773Z,100229.00
2022-12-18T15:17:09.288Z,100231.00
2022-12-18T15:19:42.763Z,100223.00
2022-12-18T15:22:33.343Z,100221.00
2022-12-18T15:25:03.583Z,100211.00
2022-12-18T15:27:36.737Z,100214.00
2022-12-18T15:30:22.076Z,100217.00
2022-12-18T15:32:52.812Z,100210.00
2022-12-18T15:35:25.158Z,100208.00
2022-12-18T15:37:57.706Z,100205.00
2022-12-18T15:40:27.998Z,100208.00
2022-12-18T15:43:11.171Z,100202.00
2022-12-18T15:45:41.056Z,100210.00
2022-12-18T15:48:22.084Z,100193.00
2022-12-18T15:50:52.708Z,100196.00
2022-12-18T15:53:25.247Z,100188.00
2022-12-18T15:56:07.593Z,100180.00
2022-12-18T15:58:38.389Z,100186.00
2022-12-18T16:01:08.703Z,100177.00
2022-12-18T16:03:39.089Z,100177.00
2022-12-18T16:06:09.960Z,100173.00
2022-12-18T16:08:42.476Z,100174.00
2022-12-18T16:11:19.820Z,100170.00
2022-12-18T16:13:50.099Z,100175.00
2022-12-18T16:16:21.590Z,100170.00
2022-12-18T16:18:51.525Z,100163.00
2022-12-18T16:21:21.343Z,100177.00
2022-12-18T16:23:54.808Z,100174.00
2022-12-18T16:26:24.890Z,100179.00
2022-12-18T16:28:54.723Z,100162.00
2022-12-18T16:31:24.723Z,100164.00
2022-12-18T16:34:13.800Z,100164.00
2022-12-18T16:36:43.925Z,100163.00
2022-12-18T16:39:16.757Z,100149.00
2022-12-18T16:41:46.706Z,100155.00
2022-12-18T16:44:16.946Z,100154.00
2022-12-18T16:46:47.296Z,100168.00
2022-12-18T16:49:17.831Z,100148.00
2022-12-18T16:51:48.357Z,100142.00
2022-12-18T16:54:20.894Z,100152.00
2022-12-18T16:56:50.792Z,100157.00
2022-12-18T16:59:20.880Z,100155.00
2022-12-18T17:01:51.843Z,100154.00
2022-12-18T17:04:21.937Z,100155.00
2022-12-18T17:06:53.999Z,100153.00
2022-12-18T17:09:27.880Z,100147.00
2022-12-18T17:11:59.667Z,100145.00
2022-12-18T17:14:31.272Z,100157.00
2022-12-18T17:17:20.947Z,100163.00
2022-12-18T17:19:51.049Z,100163.00
2022-12-18T17:22:21.017Z,100177.00
2022-12-18T17:24:53.514Z,100170.00
2022-12-18T17:27:23.425Z,100172.00
2022-12-18T17:29:53.236Z,100170.00
2022-12-18T17:32:23.158Z,100186.00
2022-12-18T17:34:53.068Z,100172.00
2022-12-18T17:37:23.229Z,100198.00
2022-12-18T17:39:56.113Z,100196.00
2022-12-18T17:42:26.471Z,100202.00
2022-12-18T17:44:56.352Z,100188.00
2022-12-18T17:47:26.243Z,100187.00
2022-12-18T17:49:56.214Z,100185.00
2022-12-18T17:52:27.111Z,100176.00
2022-12-18T17:54:59.616Z,100174.00
2022-12-18T17:57:29.495Z,100156.00
2022-12-18T17:59:59.529Z,100157.00
2022-12-18T18:02:29.574Z,100157.00
2022-12-18T18:05:00.291Z,100171.00
2022-12-18T18:07:30.159Z,100186.00
2022-12-18T18:10:02.740Z,100181.00
2022-12-18T18:12:45.052Z,100163.00
2022-12-18T18:15:15.017Z,100184.00
2022-12-18T18:17:45.072Z,100162.00
2022-12-18T18:20:22.141Z,100165.00
2022-12-18T18:22:52.521Z,100161.00
2022-12-18T18:25:25.011Z,100151.00
2022-12-18T18:27:55.747Z,100160.00
2022-12-18T18:30:25.794Z,100161.00
2022-12-18T18:32:55.630Z,100165.00
2022-12-18T18:35:52.901Z,100167.00
2022-12-18T18:38:15.316Z,100167.00
2022-12-18T18:40:47.883Z,100160.00
2022-12-18T18:43:17.773Z,100167.00
2022-12-18T18:45:47.704Z,100169.00
2022-12-18T18:48:18.841Z,100162.00
2022-12-18T18:50:59.203Z,100162.00
2022-12-18T18:53:29.250Z,100148.00
2022-12-18T18:56:45.390Z,100151.00
2022-12-18T18:58:54.234Z,100144.00
2022-12-18T19:01:25.174Z,100164.00
2022-12-18T19:03:55.974Z,100164.00
2022-12-18T19:06:27.413Z,100168.00
2022-12-18T19:08:58.897Z,100159.00
2022-12-18T19:11:43.949Z,100161.00
2022-12-18T19:14:15.780Z,100168.00
2022-12-18T19:16:46.389Z,100164.00
2022-12-18T19:19:17.871Z,100148.00
2022-12-18T19:21:47.882Z,100152.00
2022-12-18T19:24:17.715Z,100158.00
2022-12-18T19:26:50.160Z,100152.00
2022-12-18T19:29:20.031Z,100144.00
2022-12-18T19:31:49.886Z,100153.00
2022-12-18T19:34:19.798Z,100168.00
2022-12-18T19:36:49.626Z,100163.00
2022-12-18T19:39:21.164Z,100157.00
2022-12-18T19:41:53.737Z,100156.00
2022-12-18T19:44:24.205Z,100145.00
2022-12-18T19:46:54.532Z,100155.00
2022-12-18T19:49:24.484Z,100151.00
2022-12-18T19:51:54.315Z,100143.00
2022-12-18T19:54:24.180Z,100137.00
2022-12-18T19:56:58.926Z,100139.00
2022-12-18T19:59:28.844Z,100132.00
2022-12-18T20:01:58.767Z,100127.00
2022-12-18T20:04:28.937Z,100136.00
2022-12-18T20:06:59.644Z,100134.00
2022-12-18T20:09:29.693Z,100154.00
2022-12-18T20:12:02.346Z,100123.00
2022-12-18T20:14:32.318Z,100141.00
2022-12-18T20:17:02.269Z,100147.00
2022-12-18T20:19:32.453Z,100138.00
2022-12-18T20:22:04.376Z,100137.00
2022-12-18T20:24:34.338Z,100138.00
2022-12-18T20:27:09.841Z,100136.00
2022-12-18T20:29:44.435Z,100131.00
2022-12-18T20:32:14.371Z,100143.00
2022-12-18T20:34:44.608Z,100142.00
2022-12-18T20:37:15.108Z,100131.00
2022-12-18T20:39:45.702Z,100126.00
2022-12-18T20:42:18.855Z,100118.00
2022-12-18T20:44:48.734Z,100126.00
2022-12-18T20:47:18.655Z,100139.00
2022-12-18T20:49:48.577Z,100118.00
2022-12-18T20:52:18.399Z,100119.00
2022-12-18T20:54:49.479Z,100122.00
2022-12-18T20:57:22.217Z,100118.00
2022-12-18T20:59:52.179Z,100128.00
2022-12-18T21:02:22.187Z,100132.00
2022-12-18T21:04:53.351Z,100127.00
2022-12-18T21:07:23.272Z,100132.00
2022-12-18T21:09:53.217Z,100130.00
2022-12-18T21:12:42.549Z,100121.00
2022-12-18T21:15:18.411Z,100114.00
2022-12-18T21:17:49.091Z,100130.00
2022-12-18T21:20:19.568Z,100140.00
2022-12-18T21:22:49.805Z,100134.00
2022-12-18T21:25:19.787Z,100138.00
2022-12-18T21:27:52.323Z,100137.00
2022-12-18T21:30:22.648Z,100139.00
2022-12-18T21:32:53.122Z,100131.00
2022-12-18T21:35:22.980Z,100135.00
2022-12-18T21:37:55.138Z,100135.00
2022-12-18T21:40:24.994Z,100135.00
2022-12-18T21:43:09.878Z,100133.00
2022-12-18T21:45:41.172Z,100116.00
2022-12-18T21:48:12.324Z,100117.00
2022-12-18T21:50:42.175Z,100108.00
2022-12-18T21:53:12.052Z,100101.00
2022-12-18T21:55:42.244Z,100090.00
2022-12-18T21:58:14.754Z,100090.00
2022-12-18T22:00:48.647Z,100083.00
2022-12-18T22:03:19.486Z,100077.00
2022-12-18T22:05:52.008Z,100075.00
2022-12-18T22:08:40.434Z,100080.00
2022-12-18T22:11:14.583Z,100081.00
2022-12-18T22:13:48.760Z,100074.00
2022-12-18T22:16:18.765Z,100066.00
2022-12-18T22:18:48.727Z,100079.00
2022-12-18T22:21:29.260Z,100066.00
2022-12-18T22:24:01.031Z,100063.00
2022-12-18T22:26:37.904Z,100050.00
2022-12-18T22:29:26.553Z,100052.00
2022-12-18T22:31:56.508Z,100059.00
2022-12-18T22:34:26.439Z,100063.00
2022-12-18T22:36:56.389Z,100050.00
2022-12-18T22:39:29.038Z,100043.00
2022-12-18T22:41:59.953Z,100040.00
2022-12-18T22:44:32.573Z,100040.00
2022-12-18T22:47:06.511Z,100044.00
2022-12-18T22:49:37.523Z,100038.00
2022-12-18T22:52:09.465Z,100037.00
2022-12-18T22:54:39.416Z,100034.00
2022-12-18T22:57:09.533Z,100020.00
2022-12-18T22:59:42.044Z,100018.00
2022-12-18T23:02:12.096Z,100022.00
2022-12-18T23:04:42.122Z,100007.00
2022-12-18T23:07:12.047Z,100005.00
2022-12-18T23:09:42.994Z,99995.00
2022-12-18T23:12:20.171Z,99988.00
2022-12-18T23:14:53.038Z,99979.00
2022-12-18T23:17:23.246Z,99996.00
2022-12-18T23:19:53.130Z,100004.00
2022-12-18T23:22:23.008Z,99967.00
2022-12-18T23:24:52.876Z,99970.00
2022-12-18T23:27:22.720Z,99980.00
2022-12-18T23:29:55.534Z,99971.00
2022-12-18T23:32:28.291Z,99975.00
2022-12-18T23:34:58.309Z,99988.00
2022-12-18T23:37:56.987Z,99968.00
2022-12-18T23:40:18.419Z,99985.00
2022-12-18T23:42:48.257Z,99972.00
2022-12-18T23:45:20.990Z,99972.00
2022-12-18T23:47:51.270Z,99947.00
2022-12-18T23:50:29.041Z,99959.00
2022-12-18T23:53:05.591Z,99982.00
2022-12-18T23:55:37.315Z,99971.00
2022-12-18T23:58:07.184Z,99968.00
